createdAt,value
2023-03-11T00:01:11.248Z,98003.25
2023-03-11T00:03:38.838Z,98007.56
2023-03-11T00:06:07.423Z,98017.13
2023-03-11T00:08:35.122Z,98023.16
2023-03-11T00:11:02.715Z,98024.91
2023-03-11T00:13:31.004Z,98031.19
2023-03-11T00:16:02.025Z,98031.94
2023-03-11T00:18:31.427Z,98034.28
2023-03-11T00:21:00.443Z,98037.66
2023-03-11T00:23:28.476Z,98046.97
2023-03-11T00:25:56.196Z,98042.34
2023-03-11T00:28:26.004Z,98056.06
2023-03-11T00:30:53.713Z,98045.16
2023-03-11T00:33:22.616Z,98049.28
2023-03-11T00:35:51.322Z,98058.63
2023-03-11T00:38:19.526Z,98057.72
2023-03-11T00:40:48.968Z,98061.22
2023-03-11T00:43:17.493Z,98057.09
2023-03-11T00:45:45.733Z,98057.56
2023-03-11T00:48:14.703Z,98047.56
2023-03-11T00:50:44.749Z,98066.41
2023-03-11T00:53:13.533Z,98064.13
2023-03-11T00:55:44.540Z,98068.38
2023-03-11T00:58:13.382Z,98064.91
2023-03-11T01:00:44.224Z,98068.38
2023-03-11T01:03:12.385Z,98075.78
2023-03-11T01:05:40.076Z,98080.38
2023-03-11T01:08:09.459Z,98088.03
2023-03-11T01:10:38.004Z,98079.47
2023-03-11T01:13:06.146Z,98074.31
2023-03-11T01:15:36.075Z,98071.63
2023-03-11T01:18:04.731Z,98055.38
2023-03-11T01:20:32.611Z,98078.03
2023-03-11T01:23:00.738Z,98063.47
2023-03-11T01:25:30.236Z,98072.22
2023-03-11T01:27:58.001Z,98066.97
2023-03-11T01:30:29.937Z,98067.72
2023-03-11T01:32:59.298Z,98076.41
2023-03-11T01:35:31.634Z,98075.78
2023-03-11T01:37:59.458Z,98070.41
2023-03-11T01:40:30.876Z,98074.63
2023-03-11T01:42:58.748Z,98076.25
2023-03-11T01:45:35.054Z,98088.31
2023-03-11T01:48:02.947Z,98101.19
2023-03-11T01:50:35.156Z,98106.47
2023-03-11T01:53:03.618Z,98109.19
2023-03-11T01:55:33.248Z,98114.28
2023-03-11T01:58:01.294Z,98111.72
2023-03-11T02:00:31.609Z,98122.09
2023-03-11T02:03:02.132Z,98114.03
2023-03-11T02:05:31.804Z,98116.13
2023-03-11T02:07:59.418Z,98117.97
2023-03-11T02:10:27.448Z,98110.84
2023-03-11T02:12:56.654Z,98113.44
2023-03-11T02:15:25.381Z,98104.16
2023-03-11T02:17:53.639Z,98112.59
2023-03-11T02:20:31.699Z,98110.09
2023-03-11T02:23:02.477Z,98110.75
2023-03-11T02:25:35.520Z,98105.66
2023-03-11T02:28:06.873Z,98103.03
2023-03-11T02:30:37.465Z,98095.56
2023-03-11T02:33:05.246Z,98104.13
2023-03-11T02:35:32.997Z,98090.38
2023-03-11T02:38:00.583Z,98097.97
2023-03-11T02:40:58.888Z,98100.03
2023-03-11T02:43:34.285Z,98098.38
2023-03-11T02:46:02.703Z,98100.44
2023-03-11T02:48:30.743Z,98101.72
2023-03-11T02:50:58.713Z,98109.47
2023-03-11T02:53:27.863Z,98110.44
2023-03-11T02:55:55.489Z,98116.41
2023-03-11T02:58:23.152Z,98118.97
2023-03-11T03:00:52.509Z,98127.75
2023-03-11T03:03:20.061Z,98121.97
2023-03-11T03:05:47.662Z,98129.53
2023-03-11T03:08:15.292Z,98130.31
2023-03-11T03:10:42.835Z,98135.66
2023-03-11T03:13:10.422Z,98144.13
2023-03-11T03:15:38.056Z,98153.63
2023-03-11T03:18:07.134Z,98149.44
2023-03-11T03:20:34.763Z,98158.22
2023-03-11T03:23:02.551Z,98159.25
2023-03-11T03:25:30.200Z,98161.06
2023-03-11T03:27:57.746Z,98166.22
2023-03-11T03:30:25.321Z,98171.41
2023-03-11T03:32:53.005Z,98176.53
2023-03-11T03:35:22.120Z,98178.16
2023-03-11T03:37:49.644Z,98171.34
2023-03-11T03:40:17.765Z,98181.63
2023-03-11T03:42:48.490Z,98183.47
2023-03-11T03:45:19.561Z,98186.97
2023-03-11T03:47:48.511Z,98175.88
2023-03-11T03:50:16.755Z,98179.25
2023-03-11T03:52:45.742Z,98173.16
2023-03-11T03:55:13.348Z,98171.47
2023-03-11T03:57:41.313Z,98178.69
2023-03-11T04:00:10.249Z,98177.88
2023-03-11T04:02:37.901Z,98181.22
2023-03-11T04:05:06.349Z,98188.44
2023-03-11T04:07:34.866Z,98187.69
2023-03-11T04:10:04.847Z,98189.28
2023-03-11T04:12:32.470Z,98194.53
2023-03-11T04:15:00.039Z,98197.19
2023-03-11T04:17:27.605Z,98202.44
2023-03-11T04:19:55.125Z,98204.09
2023-03-11T04:22:22.717Z,98211.00
2023-03-11T04:24:50.364Z,98201.66
2023-03-11T04:27:19.265Z,98205.00
2023-03-11T04:29:46.858Z,98204.13
2023-03-11T04:32:14.471Z,98198.03
2023-03-11T04:34:42.047Z,98204.16
2023-03-11T04:37:09.715Z,98198.72
2023-03-11T04:39:37.500Z,98191.28
2023-03-11T04:42:05.358Z,98195.59
2023-03-11T04:44:35.852Z,98202.81
2023-03-11T04:47:03.458Z,98201.16
2023-03-11T04:49:31.009Z,98199.75
2023-03-11T04:51:58.589Z,98200.63
2023-03-11T04:54:26.139Z,98209.25
2023-03-11T04:56:53.729Z,98205.97
2023-03-11T04:59:21.375Z,98223.16
2023-03-11T05:01:50.344Z,98224.09
2023-03-11T05:04:18.012Z,98219.66
2023-03-11T05:06:45.579Z,98221.25
2023-03-11T05:09:13.087Z,98227.44
2023-03-11T05:11:40.690Z,98222.13
2023-03-11T05:14:08.275Z,98224.72
2023-03-11T05:16:35.857Z,98227.00
2023-03-11T05:19:25.757Z,98232.19
2023-03-11T05:21:53.365Z,98236.44
2023-03-11T05:24:21.032Z,98232.09
2023-03-11T05:26:48.709Z,98244.13
2023-03-11T05:29:16.362Z,98242.56
2023-03-11T05:31:43.954Z,98243.44
2023-03-11T05:34:12.824Z,98241.81
2023-03-11T05:36:40.501Z,98248.78
2023-03-11T05:39:08.134Z,98235.88
2023-03-11T05:41:35.906Z,98244.41
2023-03-11T05:44:03.537Z,98241.84
2023-03-11T05:46:32.203Z,98244.59
2023-03-11T05:49:00.488Z,98248.84
2023-03-11T05:51:29.441Z,98245.56
2023-03-11T05:53:57.110Z,98247.25
2023-03-11T05:56:24.663Z,98246.44
2023-03-11T05:58:52.208Z,98261.94
2023-03-11T06:01:20.760Z,98252.56
2023-03-11T06:03:48.429Z,98250.06
2023-03-11T06:06:17.672Z,98258.56
2023-03-11T06:08:49.800Z,98257.72
2023-03-11T06:11:18.259Z,98257.78
2023-03-11T06:13:45.802Z,98261.88
2023-03-11T06:16:13.712Z,98263.53
2023-03-11T06:18:41.287Z,98264.91
2023-03-11T06:21:09.424Z,98273.44
2023-03-11T06:23:37.131Z,98266.50
2023-03-11T06:26:06.743Z,98275.09
2023-03-11T06:28:35.184Z,98273.44
2023-03-11T06:31:09.446Z,98295.31
2023-03-11T06:33:37.078Z,98292.78
2023-03-11T06:36:06.184Z,98294.50
2023-03-11T06:38:37.298Z,98309.31
2023-03-11T06:41:07.304Z,98302.41
2023-03-11T06:43:35.837Z,98311.78
2023-03-11T06:46:09.400Z,98324.97
2023-03-11T06:48:37.010Z,98329.13
2023-03-11T06:51:04.985Z,98328.28
2023-03-11T06:53:32.779Z,98324.69
2023-03-11T06:56:02.003Z,98322.06
2023-03-11T06:58:31.503Z,98326.41
2023-03-11T07:01:02.627Z,98342.88
2023-03-11T07:03:30.262Z,98346.75
2023-03-11T07:05:58.414Z,98342.84
2023-03-11T07:08:26.796Z,98354.13
2023-03-11T07:11:01.820Z,98353.78
2023-03-11T07:13:30.789Z,98354.19
2023-03-11T07:16:02.379Z,98356.69
2023-03-11T07:18:30.043Z,98366.09
2023-03-11T07:20:57.877Z,98364.28
2023-03-11T07:23:25.463Z,98364.09
2023-03-11T07:25:55.377Z,98366.38
2023-03-11T07:28:23.196Z,98371.69
2023-03-11T07:30:52.460Z,98372.44
2023-03-11T07:33:20.818Z,98375.13
2023-03-11T07:35:49.313Z,98381.09
2023-03-11T07:38:17.989Z,98380.50
2023-03-11T07:40:45.699Z,98391.81
2023-03-11T07:43:13.330Z,98400.47
2023-03-11T07:45:40.927Z,98412.25
2023-03-11T07:48:09.867Z,98413.84
2023-03-11T07:50:37.456Z,98417.06
2023-03-11T07:53:04.977Z,98413.38
2023-03-11T07:55:32.589Z,98427.00
2023-03-11T07:58:00.215Z,98426.16
2023-03-11T08:00:27.773Z,98433.16
2023-03-11T08:02:55.297Z,98437.69
2023-03-11T08:05:24.270Z,98434.28
2023-03-11T08:07:51.844Z,98432.50
2023-03-11T08:10:19.430Z,98438.25
2023-03-11T08:12:46.971Z,98445.03
2023-03-11T08:15:14.525Z,98451.91
2023-03-11T08:17:42.045Z,98457.78
2023-03-11T08:20:11.604Z,98451.81
2023-03-11T08:22:55.624Z,98467.84
2023-03-11T08:25:25.134Z,98471.06
2023-03-11T08:27:52.733Z,98471.41
2023-03-11T08:30:21.512Z,98473.28
2023-03-11T08:32:49.242Z,98465.94
2023-03-11T08:35:17.334Z,98468.53
2023-03-11T08:37:46.311Z,98467.03
2023-03-11T08:40:14.698Z,98478.69
2023-03-11T08:42:42.273Z,98478.66
2023-03-11T08:45:10.736Z,98470.50
2023-03-11T08:47:39.165Z,98483.66
2023-03-11T08:50:08.754Z,98478.59
2023-03-11T08:52:36.428Z,98483.06
2023-03-11T08:55:06.482Z,98486.72
2023-03-11T08:57:34.218Z,98484.66
2023-03-11T09:00:01.769Z,98489.44
2023-03-11T09:02:29.313Z,98494.22
2023-03-11T09:04:56.883Z,98478.00
2023-03-11T09:07:24.400Z,98478.78
2023-03-11T09:09:52.018Z,98481.09
2023-03-11T09:12:21.112Z,98482.19
2023-03-11T09:14:49.066Z,98480.28
2023-03-11T09:17:17.216Z,98478.44
2023-03-11T09:19:44.745Z,98480.72
2023-03-11T09:22:12.777Z,98478.91
2023-03-11T09:24:40.545Z,98480.00
2023-03-11T09:27:08.125Z,98485.81
2023-03-11T09:29:37.030Z,98485.44
2023-03-11T09:32:04.999Z,98480.53
2023-03-11T09:34:32.603Z,98480.97
2023-03-11T09:37:01.924Z,98476.25
2023-03-11T09:39:29.482Z,98474.53
2023-03-11T09:41:59.401Z,98471.34
2023-03-11T09:44:33.858Z,98472.97
2023-03-11T09:47:15.598Z,98472.81
2023-03-11T09:50:05.906Z,98482.19
2023-03-11T09:52:39.124Z,98488.72
2023-03-11T09:55:21.166Z,98487.31
2023-03-11T09:57:49.333Z,98494.69
2023-03-11T10:00:20.084Z,98487.72
2023-03-11T10:02:50.160Z,98483.19
2023-03-11T10:05:21.927Z,98492.91
2023-03-11T10:07:53.947Z,98497.72
2023-03-11T10:10:22.017Z,98496.22
2023-03-11T10:12:53.920Z,98495.75
2023-03-11T10:15:25.862Z,98502.06
2023-03-11T10:18:06.516Z,98501.94
2023-03-11T10:20:39.990Z,98512.00
2023-03-11T10:23:16.809Z,98512.19
2023-03-11T10:25:51.229Z,98510.75
2023-03-11T10:28:20.426Z,98513.28
2023-03-11T10:30:49.410Z,98508.63
2023-03-11T10:33:23.030Z,98510.69
2023-03-11T10:35:53.341Z,98513.72
2023-03-11T10:38:23.300Z,98512.06
2023-03-11T10:40:52.611Z,98519.16
2023-03-11T10:43:22.965Z,98522.75
2023-03-11T10:45:51.105Z,98512.69
2023-03-11T10:48:20.994Z,98518.38
2023-03-11T10:50:52.066Z,98512.81
2023-03-11T10:53:20.977Z,98517.06
2023-03-11T10:55:50.266Z,98516.59
2023-03-11T10:58:20.283Z,98529.16
2023-03-11T11:00:48.007Z,98522.06
2023-03-11T11:03:23.413Z,98531.78
2023-03-11T11:06:02.095Z,98539.03
2023-03-11T11:08:30.048Z,98543.47
2023-03-11T11:10:59.572Z,98538.69
2023-03-11T11:13:30.194Z,98539.81
2023-03-11T11:16:03.457Z,98547.97
2023-03-11T11:18:34.995Z,98539.25
2023-03-11T11:21:06.989Z,98543.00
2023-03-11T11:23:38.617Z,98548.53
2023-03-11T11:26:07.753Z,98548.94
2023-03-11T11:28:36.002Z,98555.69
2023-03-11T11:31:05.281Z,98549.25
2023-03-11T11:33:36.612Z,98539.53
2023-03-11T11:36:06.074Z,98546.78
2023-03-11T11:38:34.667Z,98544.34
2023-03-11T11:41:04.796Z,98547.03
2023-03-11T11:43:47.791Z,98540.56
2023-03-11T11:46:21.407Z,98525.13
2023-03-11T11:48:54.252Z,98535.13
2023-03-11T11:51:23.141Z,98541.00
2023-03-11T11:53:53.515Z,98538.97
2023-03-11T11:56:21.080Z,98538.34
2023-03-11T11:58:48.735Z,98531.81
2023-03-11T12:01:17.960Z,98533.75
2023-03-11T12:04:01.233Z,98528.44
2023-03-11T12:06:32.642Z,98526.50
2023-03-11T12:09:08.432Z,98526.28
2023-03-11T12:11:41.992Z,98524.38
2023-03-11T12:14:14.262Z,98515.50
2023-03-11T12:16:44.020Z,98512.75
2023-03-11T12:19:20.996Z,98511.00
2023-03-11T12:22:01.618Z,98502.97
2023-03-11T12:24:42.952Z,98511.00
2023-03-11T12:27:19.683Z,98509.63
2023-03-11T12:29:49.340Z,98518.16
2023-03-11T12:32:23.000Z,98515.28
2023-03-11T12:34:52.072Z,98512.00
2023-03-11T12:37:20.765Z,98521.75
2023-03-11T12:39:48.394Z,98515.19
2023-03-11T12:42:17.915Z,98522.06
2023-03-11T12:44:46.884Z,98522.66
2023-03-11T12:47:28.814Z,98527.34
2023-03-11T12:50:36.927Z,98531.63
2023-03-11T12:53:04.905Z,98529.72
2023-03-11T12:55:36.871Z,98531.00
2023-03-11T12:58:24.285Z,98539.44
2023-03-11T13:01:04.707Z,98541.44
2023-03-11T13:03:37.368Z,98541.28
2023-03-11T13:06:20.875Z,98530.72
2023-03-11T13:08:50.400Z,98537.22
2023-03-11T13:11:37.633Z,98537.03
2023-03-11T13:14:33.115Z,98534.41
2023-03-11T13:17:25.962Z,98539.91
2023-03-11T13:19:55.574Z,98540.31
2023-03-11T13:22:44.307Z,98535.59
2023-03-11T13:25:31.366Z,98533.13
2023-03-11T13:28:06.129Z,98541.72
2023-03-11T13:30:35.727Z,98532.94
2023-03-11T13:33:19.365Z,98537.25
2023-03-11T13:35:59.988Z,98536.16
2023-03-11T13:39:15.000Z,98541.28
2023-03-11T13:41:44.880Z,98537.97
2023-03-11T13:44:15.989Z,98536.03
2023-03-11T13:46:49.547Z,98535.25
2023-03-11T13:49:26.225Z,98553.97
2023-03-11T13:51:56.834Z,98548.75
2023-03-11T13:54:47.749Z,98555.38
2023-03-11T13:57:33.440Z,98561.31
2023-03-11T14:00:15.888Z,98554.50
2023-03-11T14:02:47.069Z,98548.69
2023-03-11T14:05:17.254Z,98559.63
2023-03-11T14:07:44.902Z,98549.50
2023-03-11T14:10:30.291Z,98550.00
2023-03-11T14:13:14.652Z,98550.88
2023-03-11T14:15:47.979Z,98569.66
2023-03-11T14:18:33.969Z,98557.59
2023-03-11T14:21:02.446Z,98558.94
2023-03-11T14:23:32.425Z,98563.28
2023-03-11T14:26:07.998Z,98559.06
2023-03-11T14:28:39.679Z,98553.41
2023-03-11T14:31:07.705Z,98555.53
2023-03-11T14:33:35.265Z,98549.13
2023-03-11T14:36:05.916Z,98544.63
2023-03-11T14:38:33.979Z,98539.53
2023-03-11T14:41:03.905Z,98542.97
2023-03-11T14:43:34.926Z,98540.81
2023-03-11T14:46:03.478Z,98544.66
2023-03-11T14:48:33.246Z,98539.34
2023-03-11T14:51:03.943Z,98544.63
2023-03-11T14:53:34.677Z,98546.41
2023-03-11T14:56:04.344Z,98553.38
2023-03-11T14:58:35.889Z,98557.84
2023-03-11T15:01:05.660Z,98555.94
2023-03-11T15:03:35.075Z,98554.31
2023-03-11T15:06:05.331Z,98559.84
2023-03-11T15:08:35.551Z,98550.31
2023-03-11T15:11:05.334Z,98552.72
2023-03-11T15:13:34.715Z,98543.81
2023-03-11T15:16:03.854Z,98544.97
2023-03-11T15:18:33.556Z,98539.44
2023-03-11T15:21:07.021Z,98544.88
2023-03-11T15:23:35.882Z,98539.56
2023-03-11T15:26:06.883Z,98545.69
2023-03-11T15:28:44.368Z,98548.69
2023-03-11T15:31:25.720Z,98547.72
2023-03-11T15:33:53.260Z,98553.31
2023-03-11T15:36:31.454Z,98556.81
2023-03-11T15:39:13.569Z,98560.38
2023-03-11T15:41:41.664Z,98567.38
2023-03-11T15:44:23.773Z,98562.22
2023-03-11T15:46:51.423Z,98556.53
2023-03-11T15:49:18.967Z,98565.28
2023-03-11T15:51:46.517Z,98564.53
2023-03-11T15:54:14.078Z,98571.47
2023-03-11T15:56:42.437Z,98573.84
2023-03-11T15:59:14.282Z,98569.00
2023-03-11T16:01:43.481Z,98574.16
2023-03-11T16:04:14.323Z,98577.03
2023-03-11T16:06:42.554Z,98577.03
2023-03-11T16:09:10.846Z,98570.41
2023-03-11T16:11:38.834Z,98577.31
2023-03-11T16:14:06.801Z,98573.06
2023-03-11T16:16:34.445Z,98577.56
2023-03-11T16:19:03.420Z,98574.66
2023-03-11T16:21:34.628Z,98581.31
2023-03-11T16:24:02.286Z,98580.47
2023-03-11T16:26:30.905Z,98590.94
2023-03-11T16:29:06.187Z,98590.28
2023-03-11T16:31:40.377Z,98592.03
2023-03-11T16:34:09.294Z,98591.72
2023-03-11T16:36:36.919Z,98596.56
2023-03-11T16:39:04.658Z,98591.19
